createdAt,value
2022-09-10T00:00:55.619Z,9.10
2022-09-10T00:03:32.972Z,8.50
2022-09-10T00:06:05.913Z,7.10
2022-09-10T00:08:38.213Z,5.80
2022-09-10T00:11:11.668Z,6.60
2022-09-10T00:13:45.155Z,9.00
2022-09-10T00:16:19.216Z,7.60
2022-09-10T00:18:52.078Z,7.30
2022-09-10T00:21:24.045Z,6.00
2022-09-10T00:23:57.786Z,5.00
2022-09-10T00:26:33.108Z,5.40
2022-09-10T00:29:06.052Z,5.20
2022-09-10T00:31:38.381Z,5.10
2022-09-10T00:34:12.997Z,6.60
2022-09-10T00:36:46.819Z,8.30
2022-09-10T00:39:20.490Z,5.30
2022-09-10T00:41:52.634Z,6.00
2022-09-10T00:44:58.698Z,6.60
2022-09-10T00:47:34.584Z,7.90
2022-09-10T00:50:23.500Z,5.30
2022-09-10T00:52:56.999Z,9.80
2022-09-10T00:55:30.387Z,6.70
2022-09-10T00:58:04.047Z,5.20
2022-09-10T01:00:40.012Z,7.20
2022-09-10T01:03:15.922Z,6.30
2022-09-10T01:05:50.975Z,7.80
2022-09-10T01:08:22.700Z,6.20
2022-09-10T01:11:12.088Z,6.10
2022-09-10T01:14:03.777Z,6.30
2022-09-10T01:16:41.408Z,9.60
2022-09-10T01:19:33.735Z,7.10
2022-09-10T01:22:23.389Z,5.70
2022-09-10T01:25:00.937Z,5.30
2022-09-10T01:27:41.328Z,5.00
2022-09-10T01:30:18.215Z,7.50
2022-09-10T01:33:07.766Z,6.70
2022-09-10T01:35:43.216Z,6.20
2022-09-10T01:38:19.848Z,7.70
2022-09-10T01:40:54.369Z,7.00
2022-09-10T01:43:27.401Z,8.90
2022-09-10T01:46:19.242Z,9.30
2022-09-10T01:49:07.398Z,11.20
2022-09-10T01:51:54.470Z,10.00
2022-09-10T01:54:41.208Z,7.50
2022-09-10T01:57:27.953Z,7.90
2022-09-10T02:00:11.863Z,10.00
2022-09-10T02:02:49.602Z,9.20
2022-09-10T02:05:26.863Z,8.70
2022-09-10T02:08:02.517Z,7.50
2022-09-10T02:10:37.568Z,9.10
2022-09-10T02:13:09.405Z,4.00
2022-09-10T02:15:41.713Z,6.10
2022-09-10T02:18:13.981Z,7.20
2022-09-10T02:20:48.221Z,6.50
2022-09-10T02:23:22.247Z,6.50
2022-09-10T02:25:55.970Z,8.30
2022-09-10T02:28:27.800Z,5.10
2022-09-10T02:31:02.180Z,7.00
2022-09-10T02:33:34.185Z,8.40
2022-09-10T02:36:07.455Z,9.80
2022-09-10T02:38:39.498Z,9.30
2022-09-10T02:41:14.827Z,6.40
2022-09-10T02:43:46.722Z,5.20
2022-09-10T02:46:18.637Z,5.80
2022-09-10T02:48:50.436Z,6.00
2022-09-10T02:51:24.648Z,5.20
2022-09-10T02:53:56.561Z,8.20
2022-09-10T02:56:29.186Z,6.40
2022-09-10T02:59:00.856Z,7.10
2022-09-10T03:01:37.759Z,6.20
2022-09-10T03:04:09.481Z,8.80
2022-09-10T03:06:41.293Z,6.40
2022-09-10T03:09:13.029Z,8.60
2022-09-10T03:11:46.392Z,5.80
2022-09-10T03:14:20.409Z,7.60
2022-09-10T03:16:52.765Z,6.80
2022-09-10T03:19:24.441Z,5.20
2022-09-10T03:21:58.983Z,7.80
2022-09-10T03:24:31.023Z,6.90
2022-09-10T03:27:02.812Z,5.70
2022-09-10T03:29:34.547Z,8.00
2022-09-10T03:32:07.550Z,7.80
2022-09-10T03:34:40.014Z,7.40
2022-09-10T03:37:11.822Z,5.60
2022-09-10T03:39:43.607Z,6.30
2022-09-10T03:42:17.378Z,7.40
2022-09-10T03:44:49.049Z,4.70
2022-09-10T03:47:20.876Z,4.40
2022-09-10T03:49:52.719Z,6.50
2022-09-10T03:52:26.400Z,10.10
2022-09-10T03:54:58.554Z,6.80
2022-09-10T03:57:30.429Z,3.60
2022-09-10T04:00:02.235Z,6.80
2022-09-10T04:02:35.099Z,5.50
2022-09-10T04:05:09.588Z,5.70
2022-09-10T04:07:41.706Z,3.60
2022-09-10T04:10:16.881Z,7.60
2022-09-10T04:12:51.172Z,4.40
2022-09-10T04:15:23.256Z,7.90
2022-09-10T04:17:55.112Z,4.70
2022-09-10T04:20:27.684Z,5.60
2022-09-10T04:23:01.075Z,4.70
2022-09-10T04:25:33.642Z,6.10
2022-09-10T04:28:05.986Z,4.70
2022-09-10T04:30:37.883Z,5.90
2022-09-10T04:33:11.508Z,5.50
2022-09-10T04:35:46.468Z,4.80
2022-09-10T04:38:18.306Z,6.10
2022-09-10T04:40:57.098Z,6.40
2022-09-10T04:43:29.251Z,6.90
2022-09-10T04:46:00.998Z,7.50
2022-09-10T04:48:33.246Z,4.60
2022-09-10T04:51:16.267Z,5.30
2022-09-10T04:53:48.685Z,3.60
2022-09-10T04:56:21.149Z,5.50
2022-09-10T04:58:52.938Z,5.10
2022-09-10T05:01:25.124Z,4.00
2022-09-10T05:03:57.824Z,9.00
2022-09-10T05:06:29.527Z,4.00
2022-09-10T05:09:01.348Z,5.30
2022-09-10T05:11:33.087Z,6.50
2022-09-10T05:14:05.921Z,7.40
2022-09-10T05:16:38.677Z,3.70
2022-09-10T05:19:17.842Z,5.30
2022-09-10T05:21:50.100Z,5.40
2022-09-10T05:24:22.645Z,3.50
2022-09-10T05:26:54.369Z,7.90
2022-09-10T05:29:26.263Z,9.90
2022-09-10T05:31:58.055Z,5.30
2022-09-10T05:34:30.192Z,6.20
2022-09-10T05:37:02.192Z,7.50
2022-09-10T05:39:33.998Z,3.80
2022-09-10T05:42:07.419Z,6.30
2022-09-10T05:44:39.974Z,5.70
2022-09-10T05:47:11.635Z,5.50
2022-09-10T05:49:43.494Z,5.10
2022-09-10T05:52:15.278Z,6.50
2022-09-10T05:54:47.018Z,6.60
2022-09-10T05:57:18.829Z,6.20
2022-09-10T05:59:50.582Z,5.50
2022-09-10T06:02:24.311Z,5.70
2022-09-10T06:04:57.123Z,3.60
2022-09-10T06:07:30.074Z,3.40
2022-09-10T06:10:01.888Z,3.20
2022-09-10T06:12:34.284Z,6.40
2022-09-10T06:15:07.310Z,4.00
2022-09-10T06:17:39.341Z,7.40
2022-09-10T06:20:18.173Z,3.30
2022-09-10T06:22:49.926Z,5.10
2022-09-10T06:25:22.581Z,3.70
2022-09-10T06:27:54.251Z,4.60
2022-09-10T06:30:33.235Z,5.40
2022-09-10T06:33:05.072Z,4.50
2022-09-10T06:35:37.148Z,6.30
2022-09-10T06:38:08.847Z,5.60
2022-09-10T06:40:43.057Z,3.70
2022-09-10T06:43:14.807Z,4.10
2022-09-10T06:45:46.626Z,3.10
2022-09-10T06:48:38.206Z,2.30
2022-09-10T06:51:13.962Z,7.70
2022-09-10T06:53:47.211Z,4.60
2022-09-10T06:56:19.816Z,4.40
2022-09-10T06:58:51.850Z,4.00
2022-09-10T07:01:25.932Z,6.50
2022-09-10T07:03:59.353Z,4.30
2022-09-10T07:06:33.779Z,4.70
2022-09-10T07:09:06.328Z,5.30
2022-09-10T07:11:41.564Z,6.20
2022-09-10T07:14:15.124Z,2.10
2022-09-10T07:16:47.637Z,2.20
2022-09-10T07:19:20.879Z,3.40
2022-09-10T07:21:53.753Z,2.20
2022-09-10T07:24:25.492Z,4.40
2022-09-10T07:26:58.088Z,2.20
2022-09-10T07:29:31.325Z,4.20
2022-09-10T07:32:13.384Z,6.90
2022-09-10T07:34:47.336Z,3.50
2022-09-10T07:37:19.177Z,5.00
2022-09-10T07:39:50.920Z,6.70
2022-09-10T07:42:23.319Z,3.80
2022-09-10T07:44:55.035Z,6.00
2022-09-10T07:47:27.463Z,4.80
2022-09-10T07:49:59.875Z,3.50
2022-09-10T07:52:31.897Z,3.40
2022-09-10T07:55:03.571Z,3.20
2022-09-10T07:57:38.023Z,4.00
2022-09-10T08:00:15.592Z,2.40
2022-09-10T08:02:49.624Z,5.20
2022-09-10T08:05:21.594Z,3.40
2022-09-10T08:07:55.473Z,2.50
2022-09-10T08:10:27.309Z,4.60
2022-09-10T08:12:59.514Z,4.00
2022-09-10T08:15:31.226Z,2.60
2022-09-10T08:18:02.945Z,2.40
2022-09-10T08:20:34.783Z,5.40
2022-09-10T08:23:06.690Z,5.10
2022-09-10T08:25:38.449Z,1.70
2022-09-10T08:28:10.639Z,2.30
2022-09-10T08:30:42.813Z,1.80
2022-09-10T08:33:14.704Z,3.40
2022-09-10T08:35:46.402Z,6.50
2022-09-10T08:38:18.434Z,2.40
2022-09-10T08:40:50.236Z,3.90
2022-09-10T08:43:32.419Z,2.40
2022-09-10T08:46:15.123Z,1.40
2022-09-10T08:48:49.927Z,2.20
2022-09-10T08:51:28.025Z,1.50
2022-09-10T08:54:04.329Z,1.80
2022-09-10T08:56:37.251Z,2.60
2022-09-10T08:59:18.577Z,2.00
2022-09-10T09:01:56.512Z,1.90
2022-09-10T09:04:36.115Z,2.70
2022-09-10T09:07:15.340Z,3.50
2022-09-10T09:09:50.057Z,3.20
2022-09-10T09:12:32.175Z,3.40
2022-09-10T09:15:13.480Z,2.00
2022-09-10T09:17:59.836Z,4.00
2022-09-10T09:20:47.347Z,2.40
2022-09-10T09:23:23.823Z,2.10
2022-09-10T09:26:00.252Z,1.60
2022-09-10T09:28:37.817Z,2.50
2022-09-10T09:31:17.843Z,2.60
2022-09-10T09:33:51.546Z,2.90
2022-09-10T09:36:32.347Z,4.50
2022-09-10T09:39:05.019Z,4.00
2022-09-10T09:41:44.319Z,5.20
2022-09-10T09:44:23.854Z,5.00
2022-09-10T09:46:56.531Z,5.50
2022-09-10T09:49:29.265Z,4.20
2022-09-10T09:52:04.957Z,3.60
2022-09-10T09:57:29.942Z,2.70
2022-09-10T10:00:34.529Z,2.70
2022-09-10T10:03:19.065Z,3.20
2022-09-10T10:05:51.082Z,5.40
2022-09-10T10:08:32.318Z,2.50
2022-09-10T10:11:04.355Z,4.80
2022-09-10T10:13:41.891Z,2.00
2022-09-10T10:16:22.041Z,4.20
2022-09-10T10:18:53.821Z,2.90
2022-09-10T10:21:33.083Z,2.50
2022-09-10T10:24:06.079Z,4.50
2022-09-10T10:26:38.494Z,4.80
2022-09-10T10:29:20.917Z,2.70
2022-09-10T10:31:53.630Z,5.20
2022-09-10T10:34:45.369Z,3.20
2022-09-10T10:37:22.559Z,6.20
2022-09-10T10:43:16.983Z,3.60
2022-09-10T10:45:59.744Z,5.90
2022-09-10T10:48:48.301Z,5.10
2022-09-10T10:51:32.022Z,2.90
2022-09-10T10:54:23.768Z,4.00
2022-09-10T10:57:06.476Z,3.90
2022-09-10T10:59:53.115Z,5.40
2022-09-10T11:02:34.897Z,4.90
2022-09-10T11:05:20.217Z,3.40
2022-09-10T11:07:52.897Z,5.00
2022-09-10T11:10:28.906Z,6.10
2022-09-10T11:13:09.389Z,5.90
2022-09-10T11:15:47.216Z,4.60
2022-09-10T11:18:27.373Z,5.00
2022-09-10T11:21:08.846Z,2.20
2022-09-10T11:23:45.499Z,4.90
2022-09-10T11:26:20.983Z,3.50
2022-09-10T11:29:00.673Z,2.60
2022-09-10T11:31:35.383Z,4.80
2022-09-10T11:34:12.163Z,2.70
2022-09-10T11:36:50.403Z,3.40
2022-09-10T11:39:28.945Z,5.90
2022-09-10T11:42:05.735Z,3.50
2022-09-10T11:44:51.116Z,5.10
2022-09-10T11:47:27.956Z,3.80
2022-09-10T11:50:15.158Z,3.90
2022-09-10T11:52:47.279Z,5.40
2022-09-10T11:55:21.503Z,6.00
2022-09-10T11:58:04.280Z,4.00
2022-09-10T12:00:48.167Z,4.40
2022-09-10T12:03:49.931Z,4.30
2022-09-10T12:06:24.117Z,5.20
2022-09-10T12:09:10.114Z,6.60
2022-09-10T12:11:53.362Z,4.30
2022-09-10T12:14:25.452Z,3.20
2022-09-10T12:17:03.445Z,3.90
2022-09-10T12:19:38.613Z,4.50
2022-09-10T12:22:21.156Z,4.70
2022-09-10T12:25:03.220Z,2.60
2022-09-10T12:27:49.132Z,2.50
2022-09-10T12:31:00.861Z,2.20
2022-09-10T12:33:59.466Z,7.20
2022-09-10T12:37:19.904Z,3.70
2022-09-10T12:40:32.944Z,5.10
2022-09-10T12:43:44.739Z,4.00
2022-09-10T12:46:25.824Z,3.10
2022-09-10T12:49:14.135Z,4.80
2022-09-10T12:52:00.138Z,3.80
2022-09-10T12:54:47.083Z,4.80
2022-09-10T12:57:31.179Z,3.80
2022-09-10T13:00:22.103Z,5.50
2022-09-10T13:02:58.374Z,5.00
2022-09-10T13:05:36.707Z,5.90
2022-09-10T13:08:18.748Z,3.60
2022-09-10T13:11:07.430Z,3.40
2022-09-10T13:13:44.791Z,7.10
2022-09-10T13:16:21.188Z,4.00
2022-09-10T13:18:56.904Z,4.90
2022-09-10T13:21:53.995Z,4.40
2022-09-10T13:24:53.559Z,4.00
2022-09-10T13:27:39.067Z,5.80
2022-09-10T13:30:24.150Z,5.60
2022-09-10T13:32:59.162Z,4.90
2022-09-10T13:36:06.358Z,4.30
2022-09-10T13:39:15.912Z,6.20
2022-09-10T13:42:08.954Z,4.10
2022-09-10T13:44:56.972Z,5.50
2022-09-10T13:47:35.660Z,4.10
2022-09-10T13:50:19.214Z,4.50
2022-09-10T13:52:55.048Z,5.40
2022-09-10T13:55:29.843Z,8.90
2022-09-10T13:58:09.402Z,4.90
2022-09-10T14:00:50.048Z,3.50
2022-09-10T14:03:26.013Z,3.20
2022-09-10T14:06:00.370Z,4.40
2022-09-10T14:08:35.788Z,4.20
2022-09-10T14:11:20.974Z,4.70
2022-09-10T14:13:56.276Z,3.40
2022-09-10T14:16:32.948Z,5.20
2022-09-10T14:19:08.781Z,3.80
2022-09-10T14:21:40.661Z,4.40
2022-09-10T14:24:30.848Z,3.90
2022-09-10T14:27:16.666Z,3.20
2022-09-10T14:29:49.386Z,3.90
2022-09-10T14:32:29.554Z,3.50
2022-09-10T14:35:23.043Z,6.00
2022-09-10T14:37:54.976Z,4.50
2022-09-10T14:40:40.975Z,7.20
2022-09-10T14:43:29.898Z,5.40
2022-09-10T14:46:02.968Z,4.00
2022-09-10T14:48:37.573Z,6.00
2022-09-10T14:51:18.259Z,6.00
2022-09-10T14:53:55.428Z,3.80
2022-09-10T14:56:31.510Z,5.70
2022-09-10T14:59:11.792Z,5.30
2022-09-10T15:01:46.319Z,5.00
2022-09-10T15:04:23.046Z,5.30
2022-09-10T15:06:56.259Z,5.50
2022-09-10T15:09:29.293Z,3.70
2022-09-10T15:12:06.001Z,5.00
2022-09-10T15:14:39.020Z,6.80
2022-09-10T15:17:17.692Z,4.80
2022-09-10T15:19:50.024Z,6.40
2022-09-10T15:22:31.682Z,6.00
2022-09-10T15:25:11.691Z,5.70
2022-09-10T15:27:43.820Z,7.10
2022-09-10T15:30:16.927Z,9.10
2022-09-10T15:32:48.692Z,9.90
2022-09-10T15:35:20.485Z,6.80
2022-09-10T15:37:52.358Z,4.60
2022-09-10T15:40:24.197Z,5.00
2022-09-10T15:42:55.989Z,3.80
2022-09-10T15:45:27.831Z,5.10
2022-09-10T15:47:59.573Z,6.00
2022-09-10T15:50:32.789Z,5.70
2022-09-10T15:53:12.116Z,7.50
2022-09-10T15:55:44.188Z,5.20
2022-09-10T15:58:15.996Z,4.00
2022-09-10T16:00:47.677Z,5.70
2022-09-10T16:03:22.265Z,5.10
2022-09-10T16:05:55.120Z,5.10
2022-09-10T16:08:26.844Z,6.90
2022-09-10T16:10:59.116Z,4.00
2022-09-10T16:13:31.952Z,6.90
2022-09-10T16:16:06.271Z,6.90
2022-09-10T16:18:38.731Z,7.60
2022-09-10T16:21:12.762Z,5.20
2022-09-10T16:23:46.385Z,6.20
2022-09-10T16:26:21.615Z,6.20
2022-09-10T16:28:54.229Z,11.30
2022-09-10T16:31:27.871Z,7.60
2022-09-10T16:34:02.641Z,8.10
2022-09-10T16:36:37.007Z,8.60
2022-09-10T16:39:12.538Z,6.10
2022-09-10T16:41:45.906Z,8.70
2022-09-10T16:44:19.292Z,7.90
2022-09-10T16:46:51.145Z,8.50
2022-09-10T16:49:23.487Z,10.70
2022-09-10T16:51:55.420Z,8.60
2022-09-10T16:54:27.404Z,13.20
2022-09-10T16:56:59.323Z,12.70
2022-09-10T16:59:31.072Z,9.50
2022-09-10T17:02:02.821Z,7.40
2022-09-10T17:04:35.022Z,11.10
2022-09-10T17:07:07.030Z,8.20
2022-09-10T17:09:38.823Z,10.30
2022-09-10T17:12:12.164Z,8.10
2022-09-10T17:14:43.853Z,6.20
2022-09-10T17:17:15.621Z,9.10
2022-09-10T17:19:47.407Z,11.30
2022-09-10T17:22:19.167Z,11.00
2022-09-10T17:24:51.128Z,8.10
2022-09-10T17:27:25.546Z,5.90
2022-09-10T17:29:57.512Z,7.90
2022-09-10T17:32:29.294Z,7.60
2022-09-10T17:35:02.092Z,7.00
2022-09-10T17:37:33.822Z,4.70
2022-09-10T17:40:16.945Z,2.80
2022-09-10T17:42:50.682Z,3.80
2022-09-10T17:45:22.667Z,3.60
2022-09-10T17:47:54.595Z,4.20
2022-09-10T17:50:30.945Z,2.40
2022-09-10T17:53:03.138Z,6.00
2022-09-10T17:55:36.955Z,5.70
2022-09-10T17:58:08.763Z,4.20
2022-09-10T18:00:43.793Z,8.60
2022-09-10T18:03:16.495Z,4.60
2022-09-10T18:05:48.327Z,5.60
2022-09-10T18:08:20.346Z,4.30
2022-09-10T18:11:01.087Z,6.10
2022-09-10T18:13:33.354Z,10.00
2022-09-10T18:16:09.436Z,10.50
2022-09-10T18:18:41.766Z,9.50
2022-09-10T18:21:19.678Z,6.30
2022-09-10T18:23:55.059Z,5.90
2022-09-10T18:26:28.821Z,5.10
2022-09-10T18:29:02.971Z,6.20
2022-09-10T18:31:37.372Z,5.10
2022-09-10T18:34:12.964Z,7.00
2022-09-10T18:36:45.231Z,5.10
2022-09-10T18:39:17.343Z,4.80
2022-09-10T18:41:50.270Z,6.20
2022-09-10T18:44:24.103Z,10.40
2022-09-10T18:46:56.228Z,8.90
2022-09-10T18:49:28.528Z,8.00
2022-09-10T18:52:00.464Z,9.20
2022-09-10T18:54:32.865Z,8.20
2022-09-10T18:57:04.831Z,6.50
2022-09-10T18:59:38.482Z,6.60
2022-09-10T19:02:13.569Z,5.10
2022-09-10T19:05:09.765Z,6.70
2022-09-10T19:07:37.530Z,4.80
2022-09-10T19:10:10.460Z,5.80
2022-09-10T19:12:42.328Z,3.60
2022-09-10T19:15:15.095Z,3.80
2022-09-10T19:17:46.938Z,5.90
2022-09-10T19:20:19.345Z,5.50
2022-09-10T19:22:52.524Z,4.20
2022-09-10T19:25:24.365Z,6.40
2022-09-10T19:27:56.258Z,4.90
2022-09-10T19:30:30.630Z,6.30
2022-09-10T19:33:05.948Z,6.50
2022-09-10T19:35:38.317Z,5.10
2022-09-10T19:38:34.006Z,8.70
2022-09-10T19:41:07.941Z,9.70
2022-09-10T19:43:40.421Z,7.00
2022-09-10T19:46:12.917Z,7.00
2022-09-10T19:48:45.417Z,6.00
2022-09-10T19:51:20.372Z,6.10
2022-09-10T19:53:52.392Z,11.80
2022-09-10T19:56:25.762Z,12.30
2022-09-10T19:58:58.788Z,9.90
2022-09-10T20:01:32.354Z,5.70
2022-09-10T20:04:06.319Z,9.40
2022-09-10T20:06:39.448Z,6.60
2022-09-10T20:09:12.126Z,6.40
2022-09-10T20:11:44.006Z,6.20
2022-09-10T20:14:17.538Z,9.10
2022-09-10T20:16:49.433Z,8.90
2022-09-10T20:19:22.196Z,5.40
2022-09-10T20:21:54.144Z,5.70
2022-09-10T20:24:28.755Z,6.80
2022-09-10T20:27:00.513Z,6.30
2022-09-10T20:29:32.974Z,8.90
2022-09-10T20:32:04.805Z,9.00
2022-09-10T20:34:37.697Z,9.10
2022-09-10T20:37:09.393Z,6.70
2022-09-10T20:39:42.819Z,6.10
2022-09-10T20:42:14.730Z,7.50
2022-09-10T20:44:47.064Z,6.60
2022-09-10T20:47:18.769Z,6.70
2022-09-10T20:49:50.525Z,10.50
2022-09-10T20:52:23.496Z,9.10
2022-09-10T20:54:55.577Z,6.60
2022-09-10T20:57:30.258Z,9.40
2022-09-10T21:00:02.289Z,6.60
2022-09-10T21:02:34.229Z,5.50
2022-09-10T21:05:07.472Z,6.40
2022-09-10T21:07:39.127Z,7.40
2022-09-10T21:10:15.593Z,6.70
2022-09-10T21:12:47.268Z,8.00
2022-09-10T21:15:19.371Z,6.20
2022-09-10T21:17:51.463Z,7.30
2022-09-10T21:20:25.190Z,4.30
2022-09-10T21:22:56.923Z,6.80
2022-09-10T21:25:29.320Z,5.70
2022-09-10T21:28:01.538Z,9.20
2022-09-10T21:30:35.624Z,5.90
2022-09-10T21:33:07.393Z,5.90
2022-09-10T21:35:39.254Z,6.80
2022-09-10T21:38:11.858Z,6.60
2022-09-10T21:40:44.587Z,8.50
2022-09-10T21:43:16.499Z,6.00
2022-09-10T21:45:49.927Z,7.50
2022-09-10T21:48:22.124Z,5.40
2022-09-10T21:51:02.798Z,6.60
2022-09-10T21:53:35.561Z,7.40
2022-09-10T21:56:08.726Z,6.20
2022-09-10T21:58:41.365Z,6.00
2022-09-10T22:01:17.383Z,7.10
2022-09-10T22:03:50.297Z,5.30
2022-09-10T22:06:23.735Z,6.00
2022-09-10T22:08:58.767Z,5.40
2022-09-10T22:11:33.711Z,8.40
2022-09-10T22:14:07.137Z,6.10
2022-09-10T22:16:38.967Z,6.10
2022-09-10T22:19:14.267Z,5.50
2022-09-10T22:21:47.851Z,6.70
2022-09-10T22:24:19.645Z,6.50
2022-09-10T22:26:51.411Z,6.00
2022-09-10T22:29:23.453Z,6.90
2022-09-10T22:31:56.426Z,6.40
2022-09-10T22:34:28.894Z,4.10
2022-09-10T22:37:03.595Z,6.30
2022-09-10T22:39:37.240Z,5.70
2022-09-10T22:42:11.687Z,13.50
2022-09-10T22:44:43.402Z,8.30
2022-09-10T22:47:15.441Z,7.20
2022-09-10T22:49:47.641Z,4.80
2022-09-10T22:52:21.031Z,6.90
2022-09-10T22:54:52.716Z,8.70
2022-09-10T22:57:24.537Z,8.70
2022-09-10T22:59:56.497Z,7.00
2022-09-10T23:02:29.361Z,9.30
2022-09-10T23:05:01.257Z,8.30
2022-09-10T23:07:34.046Z,10.10
2022-09-10T23:10:09.632Z,8.30
2022-09-10T23:12:42.189Z,8.60
2022-09-10T23:15:15.870Z,6.90
2022-09-10T23:17:47.921Z,8.90
2022-09-10T23:20:20.139Z,9.50
2022-09-10T23:22:53.813Z,8.60
2022-09-10T23:25:25.634Z,8.80
2022-09-10T23:27:57.367Z,7.80
2022-09-10T23:30:29.670Z,8.80
2022-09-10T23:33:01.412Z,8.10
2022-09-10T23:35:33.092Z,8.30
2022-09-10T23:38:04.890Z,8.30
2022-09-10T23:40:36.587Z,9.90
2022-09-10T23:43:09.928Z,7.90
2022-09-10T23:45:41.836Z,8.00
2022-09-10T23:48:13.589Z,10.00
2022-09-10T23:50:46.112Z,8.50
2022-09-10T23:53:18.846Z,8.10
2022-09-10T23:55:50.867Z,10.40
2022-09-10T23:58:22.672Z,9.10
